Time;durP1;ratioP1;P1;durP2;ratioP2;P2;SDS_P1;SDS_P2;PMS_P1;PMS_P2;Temp;Humidity;BMP_temperature;BMP_pressure;BME280_temperature;BME280_humidity;BME280_pressure;Samples;Min_cycle;Max_cycle;Signal;HPM_P1;HPM_P2
2022/05/17 00:00:06;;;;;;;3.00;2.70;;;15.30;99.90;;;;;;5033437;28;20213;-56
2022/05/17 00:02:33;;;;;;;8.27;3.10;;;15.20;99.90;;;;;;5033429;28;20214;-57
2022/05/17 00:05:01;;;;;;;4.50;2.77;;;15.10;99.90;;;;;;5033398;28;20210;-56
2022/05/17 00:07:28;;;;;;;3.67;2.70;;;15.10;99.90;;;;;;5033130;28;20616;-56
2022/05/17 00:09:54;;;;;;;6.53;2.73;;;15.00;99.90;;;;;;5033313;28;20623;-56
2022/05/17 00:12:21;;;;;;;5.97;3.00;;;15.00;99.90;;;;;;5033357;28;20704;-56
2022/05/17 00:14:48;;;;;;;7.83;2.90;;;15.00;99.90;;;;;;5033349;28;20210;-56
2022/05/17 00:17:14;;;;;;;6.50;2.90;;;14.90;99.90;;;;;;5033282;28;20210;-56
2022/05/17 00:19:41;;;;;;;4.90;3.27;;;14.80;99.90;;;;;;5033006;28;20722;-56
2022/05/17 00:22:09;;;;;;;8.60;2.77;;;14.80;99.90;;;;;;5032846;28;20584;-56
2022/05/17 00:24:36;;;;;;;7.33;3.20;;;14.80;99.90;;;;;;5033304;28;20207;-56
2022/05/17 00:27:04;;;;;;;6.13;2.70;;;14.80;99.90;;;;;;5032330;28;20206;-56
2022/05/17 00:29:31;;;;;;;5.90;2.73;;;14.80;99.90;;;;;;5033144;28;20276;-56
2022/05/17 00:31:57;;;;;;;6.30;2.50;;;14.70;99.90;;;;;;5032942;28;20206;-56
2022/05/17 00:34:24;;;;;;;4.67;2.73;;;14.70;99.90;;;;;;5032819;28;20272;-57
2022/05/17 00:36:51;;;;;;;5.03;2.80;;;14.70;99.90;;;;;;5032868;28;20245;-56
2022/05/17 00:39:19;;;;;;;5.47;2.90;;;14.70;99.90;;;;;;5033027;28;20230;-56
2022/05/17 00:41:46;;;;;;;7.27;3.30;;;14.70;99.90;;;;;;5032742;28;20577;-56
2022/05/17 00:47:02;;;;;;;4.63;3.10;;;14.70;99.90;;;;;;5032779;28;20549;-56
2022/05/17 00:49:33;;;;;;;4.30;2.63;;;14.60;99.90;;;;;;5032507;28;20234;-56
2022/05/17 00:52:03;;;;;;;6.00;3.00;;;14.60;99.90;;;;;;5032335;28;20240;-55
2022/05/17 00:54:32;;;;;;;7.40;3.17;;;14.50;99.90;;;;;;5032621;28;20226;-58
2022/05/17 00:57:05;;;;;;;4.60;3.03;;;14.50;99.90;;;;;;5032472;28;20214;-56
2022/05/17 00:59:33;;;;;;;5.30;3.13;;;14.50;99.90;;;;;;5032470;28;20313;-55
2022/05/17 01:02:00;;;;;;;8.77;3.03;;;14.30;99.90;;;;;;5032469;28;20202;-56
2022/05/17 01:04:28;;;;;;;7.03;3.10;;;14.20;99.90;;;;;;5032419;28;20210;-56
2022/05/17 01:07:01;;;;;;;6.97;2.83;;;14.20;99.90;;;;;;5032391;28;20209;-56
2022/05/17 01:09:27;;;;;;;7.07;3.23;;;14.20;99.90;;;;;;5032117;28;20234;-56
2022/05/17 01:11:56;;;;;;;7.73;3.50;;;14.20;99.90;;;;;;5032045;28;20206;-56
2022/05/17 01:17:08;;;;;;;7.07;3.40;;;14.30;99.90;;;;;;5032273;28;20201;-56
2022/05/17 01:19:35;;;;;;;4.93;3.03;;;14.30;99.90;;;;;;5032030;28;20222;-56
2022/05/17 01:22:04;;;;;;;4.60;3.00;;;14.20;99.90;;;;;;5032053;28;20210;-56
2022/05/17 01:24:30;;;;;;;4.90;3.10;;;14.20;99.90;;;;;;5032125;28;20228;-56
2022/05/17 01:27:06;;;;;;;6.17;3.23;;;14.20;99.90;;;;;;5032291;28;20214;-55
2022/05/17 01:29:39;;;;;;;4.33;3.23;;;14.20;99.90;;;;;;5032148;28;20233;-56
2022/05/17 01:32:06;;;;;;;9.07;3.40;;;14.30;99.90;;;;;;5031842;28;20210;-56
2022/05/17 01:34:35;;;;;;;7.07;3.40;;;14.30;99.90;;;;;;5031895;28;20452;-56
2022/05/17 01:37:04;;;;;;;4.70;3.43;;;14.30;99.90;;;;;;5031687;28;20210;-57
2022/05/17 01:39:31;;;;;;;7.50;3.40;;;14.30;99.90;;;;;;5031889;28;20230;-56
2022/05/17 01:41:58;;;;;;;4.27;3.33;;;14.30;99.90;;;;;;5031606;28;20626;-57
2022/05/17 01:44:25;;;;;;;5.63;3.30;;;14.20;99.90;;;;;;5032073;28;20209;-56
2022/05/17 01:46:52;;;;;;;8.10;3.70;;;14.30;99.90;;;;;;5031838;28;20233;-56
2022/05/17 01:49:19;;;;;;;6.73;4.07;;;14.20;99.90;;;;;;5031781;28;20229;-56
2022/05/17 01:51:46;;;;;;;3.60;3.27;;;14.20;99.90;;;;;;5031504;28;20214;-56
2022/05/17 01:54:14;;;;;;;8.37;3.57;;;14.10;99.90;;;;;;5031589;28;20599;-56
2022/05/17 01:56:41;;;;;;;5.30;3.30;;;14.10;99.90;;;;;;5031629;28;20623;-57
2022/05/17 01:59:07;;;;;;;4.33;3.47;;;14.10;99.90;;;;;;5031531;28;20234;-56
2022/05/17 02:01:35;;;;;;;5.17;3.77;;;14.10;99.90;;;;;;5031515;28;20210;-57
2022/05/17 02:04:01;;;;;;;6.60;3.40;;;14.10;99.90;;;;;;5031584;28;20208;-56
2022/05/17 02:06:28;;;;;;;6.90;3.57;;;14.10;99.90;;;;;;5031549;28;20271;-56
2022/05/17 02:08:55;;;;;;;5.77;3.60;;;14.10;99.90;;;;;;5031482;28;20238;-56
2022/05/17 02:11:23;;;;;;;5.50;3.30;;;14.10;99.90;;;;;;5031492;28;20281;-56
2022/05/17 02:13:50;;;;;;;8.23;3.87;;;14.10;99.90;;;;;;5031709;28;20226;-56
2022/05/17 02:16:16;;;;;;;7.07;3.80;;;14.10;99.90;;;;;;5031513;28;20233;-57
2022/05/17 02:18:43;;;;;;;10.03;3.80;;;14.10;99.90;;;;;;5031273;28;20272;-56
2022/05/17 02:21:10;;;;;;;7.53;3.80;;;14.00;99.90;;;;;;5031217;28;20205;-56
2022/05/17 02:23:36;;;;;;;6.03;3.63;;;14.00;99.90;;;;;;5031411;28;20582;-56
2022/05/17 02:26:03;;;;;;;6.60;3.63;;;14.00;99.90;;;;;;5031488;28;20218;-56
2022/05/17 02:28:31;;;;;;;8.60;3.87;;;13.90;99.90;;;;;;5031371;28;20717;-56
2022/05/17 02:30:58;;;;;;;6.10;3.60;;;13.90;99.90;;;;;;5031270;28;20210;-56
2022/05/17 02:33:25;;;;;;;6.57;3.80;;;13.90;99.90;;;;;;5031816;28;20299;-56
2022/05/17 02:35:51;;;;;;;6.17;3.60;;;13.90;99.90;;;;;;5031645;28;20283;-56
2022/05/17 02:38:18;;;;;;;7.77;3.60;;;13.80;99.90;;;;;;5031524;28;20231;-56
2022/05/17 02:40:45;;;;;;;6.10;3.60;;;13.80;99.90;;;;;;5031234;28;20698;-56
2022/05/17 02:43:14;;;;;;;7.97;3.90;;;13.70;99.90;;;;;;5031464;28;20203;-56
2022/05/17 02:45:42;;;;;;;6.07;3.27;;;13.70;99.90;;;;;;5031295;28;20218;-56
2022/05/17 02:48:09;;;;;;;4.63;3.67;;;13.70;99.90;;;;;;5031426;28;20300;-56
2022/05/17 02:50:36;;;;;;;4.93;3.67;;;13.70;99.90;;;;;;5034454;28;20583;-56
2022/05/17 02:53:02;;;;;;;7.57;3.60;;;13.70;99.90;;;;;;5035557;28;20206;-56
2022/05/17 02:55:29;;;;;;;5.37;3.53;;;13.50;99.90;;;;;;5035422;28;20600;-56
2022/05/17 02:57:56;;;;;;;9.97;3.60;;;13.50;99.90;;;;;;5034907;28;20317;-56
2022/05/17 03:00:24;;;;;;;3.93;3.57;;;13.40;99.90;;;;;;5034608;28;20210;-56
2022/05/17 03:02:53;;;;;;;5.50;3.53;;;13.40;99.90;;;;;;5034751;28;20316;-56
2022/05/17 03:05:20;;;;;;;4.30;3.40;;;13.40;99.90;;;;;;5034692;28;20669;-56
2022/05/17 03:07:48;;;;;;;3.53;3.20;;;13.40;99.90;;;;;;5034653;28;20242;-56
2022/05/17 03:10:15;;;;;;;6.40;3.40;;;13.50;99.90;;;;;;5035137;28;20206;-56
2022/05/17 03:12:41;;;;;;;7.63;3.73;;;13.50;99.90;;;;;;5035093;28;20260;-56
2022/05/17 03:15:09;;;;;;;8.17;4.10;;;13.40;99.90;;;;;;5035286;28;20800;-56
2022/05/17 03:17:36;;;;;;;6.60;4.00;;;13.40;99.90;;;;;;5035373;28;20202;-57
2022/05/17 03:20:06;;;;;;;7.10;3.50;;;13.50;99.90;;;;;;5035849;28;20297;-56
2022/05/17 03:22:33;;;;;;;4.80;3.63;;;13.40;99.90;;;;;;5034595;28;20206;-56
2022/05/17 03:24:59;;;;;;;4.27;3.87;;;13.40;99.90;;;;;;5034369;28;20210;-56
2022/05/17 03:27:26;;;;;;;7.90;4.37;;;13.40;99.90;;;;;;5034204;28;20214;-56
2022/05/17 03:29:53;;;;;;;7.47;4.50;;;13.40;99.90;;;;;;5034166;28;20206;-57
2022/05/17 03:32:20;;;;;;;4.57;3.77;;;13.40;99.90;;;;;;5034204;28;20202;-56
2022/05/17 03:34:46;;;;;;;4.53;4.07;;;13.40;99.90;;;;;;5034455;28;20226;-56
2022/05/17 03:37:14;;;;;;;10.43;4.10;;;13.40;99.90;;;;;;5034073;28;20210;-55
2022/05/17 03:39:41;;;;;;;8.30;4.10;;;13.40;99.90;;;;;;5034118;28;20230;-56
2022/05/17 03:42:09;;;;;;;10.30;4.10;;;13.40;99.90;;;;;;5033456;28;20635;-55
2022/05/17 03:44:36;;;;;;;7.43;3.63;;;13.40;99.90;;;;;;5033799;28;20666;-56
2022/05/17 03:47:05;;;;;;;5.20;3.87;;;13.40;99.90;;;;;;5033922;28;20237;-56
2022/05/17 03:49:32;;;;;;;8.70;3.97;;;13.40;99.90;;;;;;5033872;28;20330;-56
2022/05/17 03:51:58;;;;;;;6.20;3.50;;;13.40;99.90;;;;;;5033703;28;20206;-56
2022/05/17 03:54:26;;;;;;;6.63;3.73;;;13.40;99.90;;;;;;5033827;28;20276;-56
2022/05/17 03:56:53;;;;;;;8.17;3.73;;;13.40;99.90;;;;;;5033819;28;20264;-56
2022/05/17 03:59:20;;;;;;;7.23;3.83;;;13.50;99.90;;;;;;5033804;28;20230;-55
2022/05/17 04:01:47;;;;;;;6.87;3.80;;;13.40;99.90;;;;;;5033632;28;20210;-56
2022/05/17 04:04:14;;;;;;;6.90;3.87;;;13.50;99.90;;;;;;5033857;28;20206;-56
2022/05/17 04:06:41;;;;;;;10.53;4.20;;;13.60;99.90;;;;;;5035578;28;20210;-56
2022/05/17 04:09:08;;;;;;;6.60;3.73;;;13.60;99.90;;;;;;5033613;28;20234;-56
2022/05/17 04:11:36;;;;;;;6.60;3.40;;;13.60;99.90;;;;;;5033960;28;20210;-56
2022/05/17 04:14:03;;;;;;;4.77;3.40;;;13.70;99.90;;;;;;5034101;28;20268;-56
2022/05/17 04:16:32;;;;;;;3.93;3.37;;;13.70;99.90;;;;;;5034632;28;20568;-56
2022/05/17 04:18:59;;;;;;;8.30;3.80;;;13.80;99.90;;;;;;5034265;28;20321;-56
2022/05/17 04:21:26;;;;;;;5.00;3.23;;;13.80;99.90;;;;;;5033936;28;20214;-56
2022/05/17 04:23:54;;;;;;;6.30;3.70;;;13.90;99.90;;;;;;5033992;28;20205;-56
2022/05/17 04:26:20;;;;;;;5.37;3.57;;;14.00;99.90;;;;;;5034029;28;20210;-56
2022/05/17 04:28:48;;;;;;;8.00;3.50;;;14.10;99.90;;;;;;5033099;28;20607;-57
2022/05/17 04:31:15;;;;;;;7.43;4.07;;;14.10;99.90;;;;;;5032902;28;20211;-57
2022/05/17 04:33:42;;;;;;;8.17;3.97;;;14.20;99.90;;;;;;5033131;28;20210;-58
2022/05/17 04:36:09;;;;;;;5.67;3.83;;;14.30;99.90;;;;;;5033843;28;20237;-57
2022/05/17 04:38:36;;;;;;;4.57;3.67;;;14.40;99.90;;;;;;5033826;28;20226;-57
2022/05/17 04:41:03;;;;;;;6.53;3.90;;;14.50;99.90;;;;;;5032879;28;20206;-57
2022/05/17 04:43:30;;;;;;;4.93;3.60;;;14.60;99.90;;;;;;5032523;28;20739;-57
2022/05/17 04:45:58;;;;;;;7.53;3.67;;;14.70;99.90;;;;;;5032766;28;20293;-58
2022/05/17 04:48:25;;;;;;;6.33;3.53;;;14.80;99.90;;;;;;5032767;28;20272;-58
2022/05/17 04:50:52;;;;;;;6.97;3.87;;;14.90;99.90;;;;;;5032373;28;20297;-57
2022/05/17 04:53:18;;;;;;;6.93;3.97;;;15.00;99.90;;;;;;5032766;28;20208;-58
2022/05/17 04:55:45;;;;;;;4.87;4.30;;;15.20;99.90;;;;;;5032552;28;20226;-57
2022/05/17 04:58:13;;;;;;;7.33;3.77;;;15.40;99.90;;;;;;5032519;28;20746;-57
2022/05/17 05:00:39;;;;;;;6.90;3.90;;;15.50;99.90;;;;;;5031867;28;20210;-57
2022/05/17 05:03:07;;;;;;;5.90;3.60;;;15.60;99.90;;;;;;5032428;28;20213;-56
2022/05/17 05:05:34;;;;;;;5.20;4.13;;;15.70;99.90;;;;;;5032202;28;20209;-56
2022/05/17 05:08:01;;;;;;;7.47;5.00;;;15.90;99.90;;;;;;5032793;28;20256;-56
2022/05/17 05:10:27;;;;;;;5.90;3.93;;;16.00;99.90;;;;;;5032574;28;20256;-57
2022/05/17 05:12:54;;;;;;;4.43;3.70;;;16.20;99.90;;;;;;5031575;28;20525;-57
2022/05/17 05:15:21;;;;;;;5.77;3.70;;;16.30;99.90;;;;;;5032108;28;20694;-57
2022/05/17 05:17:48;;;;;;;6.33;3.67;;;16.40;99.90;;;;;;5032035;28;20226;-57
2022/05/17 05:20:16;;;;;;;4.13;3.37;;;16.50;99.90;;;;;;5032684;28;20210;-57
2022/05/17 05:22:44;;;;;;;7.37;3.60;;;16.60;99.90;;;;;;5032107;28;20297;-57
2022/05/17 05:25:11;;;;;;;6.80;3.60;;;16.70;99.90;;;;;;5032207;28;20205;-56
2022/05/17 05:27:40;;;;;;;5.07;3.07;;;17.10;99.90;;;;;;5031968;28;20210;-56
2022/05/17 05:30:09;;;;;;;7.40;3.33;;;18.60;99.90;;;;;;5031955;28;20210;-57
2022/05/17 05:32:36;;;;;;;9.77;2.88;;;20.60;99.90;;;;;;5031610;28;20612;-57
2022/05/17 05:35:04;;;;;;;4.68;3.10;;;22.60;99.90;;;;;;5032465;28;20230;-57
2022/05/17 05:37:32;;;;;;;5.18;2.50;;;24.10;99.90;;;;;;5031800;28;20214;-57
2022/05/17 05:39:59;;;;;;;4.13;2.30;;;25.50;99.90;;;;;;5032157;28;20206;-58
2022/05/17 05:42:25;;;;;;;5.72;2.50;;;26.90;99.90;;;;;;5031326;28;20572;-57
2022/05/17 05:44:52;;;;;;;4.22;2.42;;;28.10;99.90;;;;;;5031598;28;20206;-57
2022/05/17 05:47:19;;;;;;;8.57;2.95;;;28.80;98.90;;;;;;5032213;28;20210;-57
2022/05/17 05:49:46;;;;;;;3.63;2.47;;;29.60;96.40;;;;;;5031913;28;20284;-57
2022/05/17 05:52:13;;;;;;;6.35;2.72;;;30.30;93.70;;;;;;5031653;28;20252;-58
2022/05/17 05:54:41;;;;;;;5.53;2.40;;;30.90;91.70;;;;;;5031754;28;20226;-58
2022/05/17 05:57:08;;;;;;;7.85;2.28;;;31.70;90.00;;;;;;5028644;28;20340;-60
2022/05/17 05:59:35;;;;;;;4.43;2.38;;;32.30;85.10;;;;;;5030652;28;20233;-61
2022/05/17 06:02:02;;;;;;;5.10;2.33;;;32.70;81.90;;;;;;5031664;28;20210;-60
2022/05/17 06:04:29;;;;;;;3.33;2.22;;;33.00;80.00;;;;;;5031536;28;20701;-61
2022/05/17 06:06:56;;;;;;;4.65;2.55;;;33.50;77.00;;;;;;5031402;28;20217;-60
2022/05/17 06:09:24;;;;;;;5.07;2.40;;;33.90;75.50;;;;;;5031144;28;20238;-64
2022/05/17 06:11:52;;;;;;;4.38;2.38;;;34.40;72.50;;;;;;5030275;28;20519;-62
2022/05/17 06:14:20;;;;;;;5.93;2.58;;;34.40;71.10;;;;;;5031507;28;20264;-62
2022/05/17 06:16:47;;;;;;;4.80;2.22;;;34.80;69.10;;;;;;5031660;28;20289;-62
2022/05/17 06:19:13;;;;;;;4.35;2.28;;;35.20;67.60;;;;;;5031927;28;20236;-62
2022/05/17 06:21:41;;;;;;;4.45;2.22;;;35.90;65.20;;;;;;5031219;28;20202;-62
2022/05/17 06:24:08;;;;;;;5.50;2.30;;;36.50;63.00;;;;;;5032253;28;20632;-62
2022/05/17 06:26:36;;;;;;;4.32;2.40;;;36.60;60.80;;;;;;5035407;28;20241;-63
2022/05/17 06:29:04;;;;;;;4.82;2.65;;;36.10;62.00;;;;;;5035528;28;20265;-62
2022/05/17 06:31:31;;;;;;;4.65;2.30;;;36.10;60.80;;;;;;5035071;28;20313;-62
2022/05/17 06:33:58;;;;;;;4.85;2.42;;;36.50;59.90;;;;;;5037746;28;20217;-62
2022/05/17 06:36:25;;;;;;;3.35;2.53;;;36.50;58.60;;;;;;5035321;28;20226;-62
2022/05/17 06:38:51;;;;;;;4.25;2.40;;;35.20;61.10;;;;;;5035179;28;20260;-62
2022/05/17 06:41:18;;;;;;;7.57;4.07;;;34.80;63.70;;;;;;5035102;28;20623;-61
2022/05/17 06:43:45;;;;;;;5.57;2.35;;;35.40;60.90;;;;;;5035342;28;20206;-63
2022/05/17 06:46:13;;;;;;;8.77;2.42;;;35.70;60.40;;;;;;5035393;28;20207;-62
2022/05/17 06:48:40;;;;;;;4.85;2.38;;;36.20;59.30;;;;;;5035143;28;20277;-62
2022/05/17 06:51:09;;;;;;;5.18;2.83;;;36.60;58.20;;;;;;5034993;28;20222;-62
2022/05/17 06:53:35;;;;;;;5.50;2.45;;;36.60;57.30;;;;;;5035084;28;20249;-62
2022/05/17 06:56:05;;;;;;;4.57;2.28;;;36.10;58.20;;;;;;5034568;28;20694;-62
2022/05/17 06:58:32;;;;;;;5.13;2.50;;;36.20;58.40;;;;;;5034611;28;20276;-62
2022/05/17 07:00:59;;;;;;;4.13;2.40;;;36.60;57.80;;;;;;5034760;28;20213;-62
2022/05/17 07:03:27;;;;;;;5.20;2.92;;;37.50;56.80;;;;;;5034694;28;20253;-62
2022/05/17 07:05:54;;;;;;;11.52;2.70;;;38.40;55.20;;;;;;5034562;28;20209;-62
2022/05/17 07:08:22;;;;;;;6.30;2.80;;;39.00;53.90;;;;;;5034629;28;20292;-61
2022/05/17 07:13:33;;;;;;;6.13;2.65;;;39.90;51.80;;;;;;5034517;28;20200;-62
2022/05/17 07:16:00;;;;;;;4.28;2.75;;;39.20;52.00;;;;;;5034456;28;20272;-62
2022/05/17 07:18:29;;;;;;;3.88;2.67;;;38.60;52.90;;;;;;5034277;28;20276;-62
2022/05/17 07:20:58;;;;;;;5.60;2.80;;;38.60;53.10;;;;;;5034213;28;20214;-62
2022/05/17 07:23:25;;;;;;;4.75;2.63;;;39.10;52.40;;;;;;5034439;28;20674;-62
2022/05/17 07:25:52;;;;;;;5.25;2.55;;;39.80;51.10;;;;;;5034239;28;20298;-61
2022/05/17 07:28:22;;;;;;;5.72;2.90;;;40.10;50.00;;;;;;5034130;28;20246;-62
2022/05/17 07:30:49;;;;;;;5.55;2.60;;;40.40;49.80;;;;;;5034009;28;20202;-61
2022/05/17 07:33:17;;;;;;;5.30;2.50;;;40.90;49.40;;;;;;5033961;28;20587;-61
2022/05/17 07:35:45;;;;;;;5.60;2.70;;;41.20;48.00;;;;;;5033903;28;20257;-61
2022/05/17 07:38:12;;;;;;;6.38;2.70;;;41.10;47.90;;;;;;5034233;28;20237;-61
2022/05/17 07:40:39;;;;;;;6.28;2.78;;;40.30;48.40;;;;;;5034266;28;20264;-61
2022/05/17 07:43:06;;;;;;;5.80;2.78;;;39.90;49.10;;;;;;5033766;28;20662;-61
2022/05/17 07:45:33;;;;;;;5.75;3.00;;;40.00;48.70;;;;;;5033880;28;20206;-61
2022/05/17 07:48:02;;;;;;;22.35;16.08;;;40.00;48.70;;;;;;5033659;28;20634;-60
2022/05/17 07:50:28;;;;;;;4.45;2.50;;;40.60;47.80;;;;;;5033849;28;20216;-61
2022/05/17 07:52:56;;;;;;;5.30;2.50;;;41.30;46.00;;;;;;5033880;28;20213;-61
2022/05/17 07:55:23;;;;;;;4.65;2.45;;;40.90;46.40;;;;;;5033761;28;20252;-56
2022/05/17 07:57:50;;;;;;;6.00;2.60;;;40.80;46.50;;;;;;5033427;28;20775;-57
2022/05/17 08:00:16;;;;;;;4.43;2.05;;;41.00;46.10;;;;;;5033637;28;20235;-57
2022/05/17 08:02:43;;;;;;;4.97;2.50;;;41.60;44.90;;;;;;5032978;28;20213;-57
2022/05/17 08:05:10;;;;;;;6.47;2.50;;;41.90;44.90;;;;;;5033627;28;20210;-57
2022/05/17 08:07:38;;;;;;;4.85;2.55;;;42.60;43.70;;;;;;5033221;28;20276;-57
2022/05/17 08:10:07;;;;;;;4.00;1.98;;;43.40;41.80;;;;;;5033492;28;20397;-57
2022/05/17 08:12:33;;;;;;;3.40;1.90;;;43.90;41.10;;;;;;5033239;28;20206;-58
2022/05/17 08:15:01;;;;;;;6.75;2.30;;;43.40;41.00;;;;;;5033341;28;20205;-57
2022/05/17 08:17:27;;;;;;;5.70;2.20;;;41.70;42.80;;;;;;5033315;28;20674;-57
2022/05/17 08:19:54;;;;;;;5.45;2.08;;;40.90;42.90;;;;;;5033201;28;20210;-59
2022/05/17 08:22:21;;;;;;;4.68;1.92;;;39.40;45.00;;;;;;5033263;28;20210;-57
2022/05/17 08:27:32;;;;;;;4.35;1.85;;;39.00;44.90;;;;;;4992634;28;20289;-57
2022/05/17 08:29:59;;;;;;;2.42;1.77;;;39.10;43.50;;;;;;5032966;28;20696;-56
2022/05/17 08:35:10;;;;;;;8.10;2.25;;;37.40;45.70;;;;;;5033364;28;20272;-57
2022/05/17 08:37:37;;;;;;;3.53;1.83;;;36.40;47.10;;;;;;5033011;28;20723;-56
2022/05/17 08:40:05;;;;;;;6.10;1.60;;;35.60;47.70;;;;;;5032813;28;20217;-57
2022/05/17 08:42:39;;;;;;;5.10;2.15;;;34.30;49.20;;;;;;5033068;28;20210;-57
2022/05/17 08:45:12;;;;;;;3.03;1.80;;;33.20;51.00;;;;;;5032726;28;20441;-57
2022/05/17 08:47:46;;;;;;;3.20;1.60;;;32.10;51.90;;;;;;5010771;28;20210;-59
2022/05/17 08:50:18;;;;;;;5.78;1.98;;;30.80;54.00;;;;;;5012919;28;20705;-60
2022/05/17 08:52:46;;;;;;;3.78;1.70;;;30.10;55.20;;;;;;5012351;28;20284;-60
2022/05/17 08:55:21;;;;;;;4.20;1.60;;;29.90;55.30;;;;;;5012594;28;20207;-60
2022/05/17 08:57:53;;;;;;;5.00;2.10;;;29.70;56.40;;;;;;5012607;28;20226;-61
2022/05/17 09:00:24;;;;;;;2.97;1.80;;;29.20;57.40;;;;;;5012395;28;20678;-61
2022/05/17 09:02:54;;;;;;;4.07;2.08;;;28.80;58.90;;;;;;5012176;28;20211;-60
2022/05/17 09:05:33;;;;;;;4.18;2.20;;;28.40;59.30;;;;;;5012189;28;20207;-60
2022/05/17 09:08:12;;;;;;;3.95;1.90;;;28.10;60.10;;;;;;5020703;28;20229;-58
2022/05/17 09:10:41;;;;;;;4.28;1.95;;;27.90;61.30;;;;;;5031130;28;20705;-59
2022/05/17 09:13:16;;;;;;;4.07;2.08;;;27.90;61.80;;;;;;5031056;28;20446;-60
2022/05/17 09:15:44;;;;;;;3.72;1.90;;;27.80;61.20;;;;;;5030757;28;20333;-58
2022/05/17 09:18:16;;;;;;;7.80;2.00;;;27.90;61.90;;;;;;5031992;28;20229;-58
2022/05/17 09:20:43;;;;;;;3.25;1.80;;;27.90;61.20;;;;;;5032159;28;20202;-57
2022/05/17 09:23:11;;;;;;;5.60;2.25;;;27.80;61.70;;;;;;5032255;28;20221;-58
2022/05/17 09:26:04;;;;;;;4.30;2.10;;;27.30;62.40;;;;;;5032141;28;20199;-58
2022/05/17 09:28:49;;;;;;;6.28;2.17;;;26.90;63.70;;;;;;5032296;28;20639;-58
2022/05/17 09:31:25;;;;;;;7.10;2.00;;;26.60;65.40;;;;;;5031977;28;20232;-58
2022/05/17 09:33:53;;;;;;;4.85;2.00;;;26.20;66.40;;;;;;5032186;28;20260;-58
2022/05/17 09:36:21;;;;;;;3.25;1.80;;;25.90;67.20;;;;;;5032194;28;20798;-58
2022/05/17 09:38:50;;;;;;;7.57;2.05;;;26.00;67.70;;;;;;5032210;28;20231;-56
2022/05/17 09:41:22;;;;;;;3.30;1.80;;;26.10;67.30;;;;;;5032020;28;20202;-57
2022/05/17 09:43:53;;;;;;;6.38;1.60;;;26.40;66.70;;;;;;5032406;28;20202;-56
2022/05/17 09:46:29;;;;;;;6.18;2.10;;;26.60;66.10;;;;;;5031954;28;20205;-56
2022/05/17 09:54:40;;;;;;;5.45;2.17;;;27.50;65.10;;;;;;5032042;28;20205;-57
2022/05/17 09:57:22;;;;;;;4.70;2.13;;;27.70;64.70;;;;;;5031815;28;20218;-57
2022/05/17 09:59:54;;;;;;;5.22;1.90;;;27.80;63.90;;;;;;5038478;28;20375;-57
2022/05/17 10:02:41;;;;;;;5.55;2.10;;;28.00;63.70;;;;;;5038384;28;20210;-57
2022/05/17 10:05:18;;;;;;;6.82;2.10;;;28.20;63.50;;;;;;5038479;28;20210;-57
2022/05/17 10:07:55;;;;;;;3.58;2.10;;;28.30;63.40;;;;;;5037947;28;20222;-57
2022/05/17 10:10:27;;;;;;;5.82;1.90;;;28.30;63.40;;;;;;5038566;28;20279;-57
2022/05/17 10:12:58;;;;;;;3.85;1.90;;;28.40;61.90;;;;;;5037771;28;20740;-58
2022/05/17 10:15:28;;;;;;;5.85;1.90;;;28.40;62.20;;;;;;5038297;28;20223;-57
2022/05/17 10:18:00;;;;;;;3.65;1.70;;;28.50;61.10;;;;;;5038474;28;20234;-57
2022/05/17 10:20:33;;;;;;;4.63;1.73;;;28.50;60.00;;;;;;5038509;28;20246;-57
2022/05/17 10:23:03;;;;;;;6.78;2.30;;;28.20;60.50;;;;;;5038344;28;20212;-57
2022/05/17 10:25:36;;;;;;;5.22;2.15;;;27.60;62.30;;;;;;5038261;28;20677;-57
2022/05/17 10:28:10;;;;;;;3.58;2.05;;;27.40;63.30;;;;;;5038011;28;20301;-57
2022/05/17 10:30:45;;;;;;;3.92;1.70;;;27.60;62.90;;;;;;5037946;28;20214;-57
2022/05/17 10:33:16;;;;;;;5.40;1.77;;;27.60;62.60;;;;;;5038276;28;20214;-57
2022/05/17 10:35:47;;;;;;;3.70;1.50;;;27.50;62.90;;;;;;5038297;28;20213;-57
2022/05/17 10:38:18;;;;;;;4.80;1.80;;;27.50;63.00;;;;;;5034878;28;20308;-59
2022/05/17 10:40:47;;;;;;;4.75;1.60;;;27.60;61.90;;;;;;5037176;28;20210;-58
2022/05/17 10:43:25;;;;;;;4.38;1.52;;;27.60;60.90;;;;;;5037576;28;20210;-60
2022/05/17 10:46:00;;;;;;;4.22;1.70;;;27.70;60.20;;;;;;5037937;28;20210;-60
2022/05/17 10:48:39;;;;;;;3.67;1.65;;;27.80;61.10;;;;;;5037538;28;20316;-60
2022/05/17 10:51:12;;;;;;;2.90;1.77;;;27.70;60.50;;;;;;5037737;28;20293;-58
2022/05/17 10:53:51;;;;;;;4.93;2.38;;;27.80;61.80;;;;;;5038490;28;20210;-58
2022/05/17 10:56:28;;;;;;;4.40;1.58;;;28.00;62.90;;;;;;5039036;28;20226;-58
2022/05/17 10:59:02;;;;;;;6.63;1.95;;;28.00;62.30;;;;;;5039707;28;20585;-58
2022/05/17 11:01:37;;;;;;;7.88;4.57;;;28.20;63.10;;;;;;5037777;28;20552;-59
2022/05/17 11:04:19;;;;;;;4.05;1.73;;;28.40;62.00;;;;;;5037745;28;20264;-59
2022/05/17 11:06:54;;;;;;;5.47;2.03;;;28.60;60.80;;;;;;5038420;28;20573;-60
2022/05/17 11:09:27;;;;;;;3.92;1.90;;;28.80;61.30;;;;;;5037696;28;20653;-59
2022/05/17 11:12:04;;;;;;;4.28;1.73;;;29.00;60.60;;;;;;5036753;28;20206;-59
2022/05/17 11:14:37;;;;;;;6.50;1.60;;;29.20;58.70;;;;;;5038305;28;20232;-59
2022/05/17 11:17:13;;;;;;;4.43;1.70;;;29.20;58.50;;;;;;5037230;28;20265;-60
2022/05/17 11:19:44;;;;;;;5.10;2.00;;;29.20;59.20;;;;;;5037312;28;20222;-57
2022/05/17 11:22:16;;;;;;;4.70;1.70;;;29.30;59.20;;;;;;5034106;28;20264;-57
2022/05/17 11:25:15;;;;;;;3.47;1.80;;;29.20;59.60;;;;;;5034557;28;20210;-57
2022/05/17 11:28:21;;;;;;;3.00;1.25;;;29.20;59.80;;;;;;5034390;28;20260;-57
2022/05/17 11:30:53;;;;;;;4.57;1.60;;;29.20;58.00;;;;;;5033725;28;20201;-57
2022/05/17 11:33:35;;;;;;;3.45;1.45;;;28.70;59.10;;;;;;5033884;28;20260;-57
2022/05/17 11:36:03;;;;;;;5.10;1.50;;;28.30;59.80;;;;;;5035147;28;20241;-57
2022/05/17 11:38:52;;;;;;;3.90;1.63;;;28.10;60.60;;;;;;5035882;28;20222;-57
2022/05/17 11:41:42;;;;;;;5.53;1.75;;;27.60;61.40;;;;;;5034931;28;20241;-57
2022/05/17 11:44:21;;;;;;;4.55;1.50;;;27.60;62.70;;;;;;5035810;28;20301;-57
2022/05/17 11:46:55;;;;;;;2.90;1.70;;;27.30;62.70;;;;;;5035552;28;20662;-57
2022/05/17 11:49:47;;;;;;;3.22;1.40;;;27.20;62.50;;;;;;5035192;28;20293;-57
2022/05/17 11:52:27;;;;;;;3.03;1.30;;;27.20;62.30;;;;;;5015100;28;20211;-57
2022/05/17 11:54:55;;;;;;;6.45;1.70;;;27.20;62.80;;;;;;5033993;28;20220;-57
2022/05/17 11:58:03;;;;;;;4.38;1.40;;;27.10;62.60;;;;;;5033643;28;20229;-57
2022/05/17 12:00:49;;;;;;;5.72;1.75;;;26.80;63.40;;;;;;5033910;28;20214;-57
2022/05/17 12:03:42;;;;;;;3.78;1.60;;;26.70;63.30;;;;;;5033354;28;20244;-57
2022/05/17 12:06:36;;;;;;;2.47;1.40;;;26.50;64.50;;;;;;5033421;28;20229;-57
2022/05/17 12:09:06;;;;;;;3.58;1.60;;;26.30;64.80;;;;;;5033087;28;20728;-57
2022/05/17 12:11:46;;;;;;;3.50;1.65;;;26.30;65.50;;;;;;5033009;28;20206;-57
2022/05/17 12:14:21;;;;;;;4.68;2.00;;;26.40;65.30;;;;;;5033302;28;20268;-59
2022/05/17 12:16:50;;;;;;;4.43;1.70;;;26.60;64.30;;;;;;5013531;28;20325;-59
2022/05/17 12:19:25;;;;;;;4.78;1.67;;;26.80;64.00;;;;;;5013647;28;20233;-60
2022/05/17 12:21:58;;;;;;;5.15;1.98;;;27.00;63.90;;;;;;5012003;28;20236;-61
2022/05/17 12:24:48;;;;;;;5.05;1.75;;;27.00;64.00;;;;;;5013720;28;20631;-60
2022/05/17 12:27:22;;;;;;;3.88;1.30;;;27.10;63.80;;;;;;5013157;28;20207;-60
2022/05/17 12:32:38;;;;;;;6.50;2.08;;;27.20;62.70;;;;;;5013001;28;20213;-60
2022/05/17 12:35:07;;;;;;;5.25;2.35;;;27.30;62.50;;;;;;5012824;28;20202;-59
2022/05/17 12:37:41;;;;;;;1.83;1.30;;;27.30;63.20;;;;;;5012705;28;20285;-60
2022/05/17 12:43:11;;;;;;;3.25;1.20;;;27.40;63.00;;;;;;5012762;28;20206;-60
2022/05/17 12:45:42;;;;;;;3.58;1.80;;;27.60;62.70;;;;;;5012984;28;20687;-60
2022/05/17 12:48:15;;;;;;;3.30;1.58;;;27.80;62.70;;;;;;5012381;28;20253;-60
2022/05/17 12:50:44;;;;;;;2.85;1.70;;;28.00;61.50;;;;;;5012810;28;20277;-61
2022/05/17 12:53:18;;;;;;;7.68;3.58;;;28.20;61.60;;;;;;5013215;28;20683;-61
2022/05/17 12:55:58;;;;;;;5.55;1.67;;;28.20;61.10;;;;;;5013800;28;20210;-61
2022/05/17 12:58:25;;;;;;;4.22;1.50;;;28.30;61.10;;;;;;5012401;28;20245;-62
2022/05/17 13:00:54;;;;;;;3.50;1.52;;;28.40;60.00;;;;;;5012629;28;20687;-61
2022/05/17 13:03:23;;;;;;;3.63;1.58;;;28.40;60.20;;;;;;5012449;28;20306;-61
2022/05/17 13:05:53;;;;;;;2.60;1.58;;;28.40;60.10;;;;;;5012424;28;20206;-60
2022/05/17 13:08:24;;;;;;;3.58;1.67;;;28.30;59.20;;;;;;5012287;28;20320;-60
2022/05/17 13:11:02;;;;;;;3.53;1.33;;;28.10;60.10;;;;;;5012170;28;20273;-60
2022/05/17 13:13:31;;;;;;;2.92;1.55;;;27.70;60.70;;;;;;5012382;28;20603;-60
2022/05/17 13:16:02;;;;;;;4.40;1.70;;;27.50;61.50;;;;;;5025725;28;20206;-61
2022/05/17 13:18:37;;;;;;;4.78;1.35;;;27.60;62.60;;;;;;5031972;28;20225;-60
2022/05/17 13:21:05;;;;;;;3.15;1.65;;;27.70;61.20;;;;;;5032068;28;20201;-60
2022/05/17 13:23:33;;;;;;;1.67;1.25;;;27.80;61.40;;;;;;5031491;28;20233;-61